createdAt,value
2018-09-17T00:00:04.947Z,97434.73
2018-09-17T00:02:32.111Z,97427.77
2018-09-17T00:04:59.252Z,97431.13
2018-09-17T00:07:26.408Z,97431.91
2018-09-17T00:09:53.562Z,97429.44
2018-09-17T00:12:20.760Z,97425.68
2018-09-17T00:14:47.911Z,97421.73
2018-09-17T00:17:15.115Z,97421.71
2018-09-17T00:19:42.278Z,97422.45
2018-09-17T00:22:09.399Z,97426.22
2018-09-17T00:24:36.596Z,97416.87
2018-09-17T00:27:03.756Z,97421.23
2018-09-17T00:29:30.926Z,97417.09
2018-09-17T00:31:58.076Z,97420.88
2018-09-17T00:34:25.281Z,97414.92
2018-09-17T00:36:52.452Z,97414.10
2018-09-17T00:39:19.610Z,97410.01
2018-09-17T00:41:46.819Z,97409.61
2018-09-17T00:44:13.945Z,97406.11
2018-09-17T00:46:41.165Z,97407.83
2018-09-17T00:49:08.333Z,97407.11
2018-09-17T00:51:35.603Z,97410.45
2018-09-17T00:54:02.813Z,97407.78
2018-09-17T00:56:29.927Z,97409.13
2018-09-17T00:58:57.034Z,97409.73
2018-09-17T01:01:24.216Z,97404.45
2018-09-17T01:03:51.444Z,97411.89
2018-09-17T01:06:18.562Z,97402.58
2018-09-17T01:08:45.716Z,97398.58
2018-09-17T01:11:12.984Z,97409.28
2018-09-17T01:13:40.149Z,97407.41
2018-09-17T01:16:07.358Z,97413.63
2018-09-17T01:18:34.558Z,97409.24
2018-09-17T01:21:01.716Z,97399.03
2018-09-17T01:23:28.860Z,97403.77
2018-09-17T01:25:56.063Z,97403.55
2018-09-17T01:28:23.208Z,97398.38
2018-09-17T01:30:50.487Z,97403.94
2018-09-17T01:33:17.754Z,97409.22
2018-09-17T01:35:44.973Z,97410.63
2018-09-17T01:38:12.132Z,97412.59
2018-09-17T01:40:39.315Z,97407.93
2018-09-17T01:43:06.604Z,97406.17
2018-09-17T01:45:33.790Z,97412.16
2018-09-17T01:48:00.953Z,97413.73
2018-09-17T01:50:28.122Z,97410.73
2018-09-17T01:52:55.279Z,97407.39
2018-09-17T01:55:22.436Z,97401.83
2018-09-17T01:57:49.699Z,97405.48
2018-09-17T02:00:16.875Z,97387.18
2018-09-17T02:02:44.136Z,97408.91
2018-09-17T02:05:11.339Z,97405.24
2018-09-17T02:07:38.696Z,97398.86
2018-09-17T02:10:06.001Z,97406.16
2018-09-17T02:12:33.152Z,97402.62
2018-09-17T02:15:00.339Z,97409.59
2018-09-17T02:17:27.695Z,97409.77
2018-09-17T02:19:54.856Z,97405.73
2018-09-17T02:22:22.171Z,97411.86
2018-09-17T02:24:49.511Z,97413.75
2018-09-17T02:27:16.808Z,97416.38
2018-09-17T02:29:43.901Z,97418.47
2018-09-17T02:32:11.075Z,97423.99
2018-09-17T02:34:38.229Z,97422.72
2018-09-17T02:37:05.424Z,97427.76
2018-09-17T02:39:32.597Z,97418.67
2018-09-17T02:41:59.772Z,97418.26
2018-09-17T02:44:26.924Z,97421.09
2018-09-17T02:46:54.044Z,97420.67
2018-09-17T02:49:21.244Z,97420.06
2018-09-17T02:51:48.499Z,97416.40
2018-09-17T02:54:15.655Z,97414.61
2018-09-17T02:56:42.865Z,97426.63
2018-09-17T02:59:10.127Z,97428.52
2018-09-17T03:01:37.265Z,97428.11
2018-09-17T03:04:04.517Z,97434.41
2018-09-17T03:06:31.666Z,97431.38
2018-09-17T03:08:58.797Z,97433.37
2018-09-17T03:11:26.009Z,97436.89
2018-09-17T03:13:53.363Z,97435.13
2018-09-17T03:16:20.552Z,97437.77
2018-09-17T03:18:50.507Z,97433.92
2018-09-17T03:21:17.714Z,97441.86
2018-09-17T03:23:44.905Z,97441.48
2018-09-17T03:26:12.053Z,97440.27
2018-09-17T03:28:39.257Z,97432.25
2018-09-17T03:31:06.368Z,97434.34
2018-09-17T03:33:33.561Z,97441.69
2018-09-17T03:36:00.897Z,97444.08
2018-09-17T03:38:43.562Z,97453.27
2018-09-17T03:41:11.492Z,97445.75
2018-09-17T03:43:39.964Z,97456.72
2018-09-17T03:46:07.162Z,97451.86
2018-09-17T03:48:35.103Z,97448.41
2018-09-17T03:51:03.125Z,97442.80
2018-09-17T03:53:30.741Z,97448.67
2018-09-17T03:55:57.945Z,97447.92
2018-09-17T03:58:25.182Z,97446.72
2018-09-17T04:00:52.379Z,97436.64
2018-09-17T04:03:19.631Z,97443.43
2018-09-17T04:05:46.838Z,97442.38
2018-09-17T04:08:14.024Z,97445.50
2018-09-17T04:10:41.235Z,97438.61
2018-09-17T04:13:09.090Z,97451.94
2018-09-17T04:15:36.273Z,97447.59
2018-09-17T04:18:03.452Z,97446.13
2018-09-17T04:20:30.648Z,97446.70
2018-09-17T04:22:57.903Z,97451.34
2018-09-17T04:25:25.233Z,97453.95
2018-09-17T04:27:52.396Z,97462.69
2018-09-17T04:30:19.532Z,97460.55
2018-09-17T04:32:46.732Z,97460.75
2018-09-17T04:35:13.994Z,97468.13
2018-09-17T04:37:41.172Z,97461.81
2018-09-17T04:40:08.593Z,97455.77
2018-09-17T04:42:36.807Z,97467.84
2018-09-17T04:45:04.060Z,97464.08
2018-09-17T04:47:31.708Z,97464.50
2018-09-17T04:49:58.919Z,97465.19
2018-09-17T04:52:26.041Z,97474.70
2018-09-17T04:54:53.204Z,97481.63
2018-09-17T04:57:20.442Z,97483.93
2018-09-17T04:59:47.571Z,97485.37
2018-09-17T05:02:14.756Z,97486.12
2018-09-17T05:04:41.976Z,97485.81
2018-09-17T05:07:09.127Z,97479.72
2018-09-17T05:09:36.304Z,97476.40
2018-09-17T05:12:03.684Z,97472.58
2018-09-17T05:14:30.803Z,97476.77
2018-09-17T05:16:58.095Z,97474.22
2018-09-17T05:19:25.322Z,97464.20
2018-09-17T05:21:52.540Z,97463.23
2018-09-17T05:24:19.767Z,97461.73
2018-09-17T05:26:47.035Z,97476.34
2018-09-17T05:29:14.235Z,97467.26
2018-09-17T05:31:41.445Z,97464.78
2018-09-17T05:34:08.590Z,97468.11
2018-09-17T05:36:35.861Z,97471.95
2018-09-17T05:39:04.360Z,97473.47
2018-09-17T05:41:31.581Z,97468.69
2018-09-17T05:43:58.776Z,97475.35
2018-09-17T05:46:26.379Z,97469.52
2018-09-17T05:48:53.503Z,97475.91
2018-09-17T05:51:20.743Z,97470.19
2018-09-17T05:53:47.975Z,97476.09
2018-09-17T05:56:15.132Z,97477.28
2018-09-17T05:58:42.263Z,97482.29
2018-09-17T06:01:09.486Z,97482.41
2018-09-17T06:03:36.680Z,97482.47
2018-09-17T06:06:03.959Z,97479.68
2018-09-17T06:08:31.049Z,97477.80
2018-09-17T06:10:58.255Z,97488.95
2018-09-17T06:13:25.381Z,97481.09
2018-09-17T06:15:52.595Z,97478.82
2018-09-17T06:18:19.876Z,97479.47
2018-09-17T06:20:47.040Z,97482.48
2018-09-17T06:23:14.252Z,97486.63
2018-09-17T06:25:41.432Z,97488.63
2018-09-17T06:28:08.595Z,97484.03
2018-09-17T06:30:35.788Z,97488.72
2018-09-17T06:33:02.952Z,97487.76
2018-09-17T06:35:30.114Z,97490.26
2018-09-17T06:37:57.264Z,97485.54
2018-09-17T06:40:24.482Z,97487.55
2018-09-17T06:42:51.605Z,97486.76
2018-09-17T06:45:18.820Z,97477.11
2018-09-17T06:47:45.996Z,97484.55
2018-09-17T06:50:13.149Z,97486.29
2018-09-17T06:52:40.366Z,97484.75
2018-09-17T06:55:07.760Z,97486.75
2018-09-17T06:57:34.933Z,97487.60
2018-09-17T07:00:02.466Z,97496.42
2018-09-17T07:02:29.648Z,97497.48
2018-09-17T07:04:56.840Z,97502.33
2018-09-17T07:07:24.074Z,97489.72
2018-09-17T07:09:51.256Z,97485.86
2018-09-17T07:12:18.428Z,97491.73
2018-09-17T07:14:45.606Z,97484.66
2018-09-17T07:17:12.760Z,97484.21
2018-09-17T07:19:39.953Z,97483.75
2018-09-17T07:22:07.124Z,97488.70
2018-09-17T07:24:34.292Z,97489.06
2018-09-17T07:27:01.480Z,97491.95
2018-09-17T07:29:28.639Z,97486.78
2018-09-17T07:31:55.833Z,97487.94
2018-09-17T07:34:23.088Z,97488.29
2018-09-17T07:36:50.251Z,97488.23
2018-09-17T07:39:17.493Z,97489.42
2018-09-17T07:41:44.644Z,97491.76
2018-09-17T07:44:11.879Z,97492.23
2018-09-17T07:46:39.102Z,97487.69
2018-09-17T07:49:06.264Z,97487.38
2018-09-17T07:51:33.419Z,97485.06
2018-09-17T07:54:00.620Z,97485.63
2018-09-17T07:56:28.207Z,97490.83
2018-09-17T07:58:55.430Z,97486.12
2018-09-17T08:01:22.580Z,97475.80
2018-09-17T08:03:49.817Z,97481.13
2018-09-17T08:06:16.992Z,97482.45
2018-09-17T08:08:44.229Z,97483.73
2018-09-17T08:11:11.427Z,97484.85
2018-09-17T08:13:38.830Z,97482.70
2018-09-17T08:16:06.036Z,97481.19
2018-09-17T08:18:33.187Z,97479.77
2018-09-17T08:21:00.375Z,97478.04
2018-09-17T08:23:27.575Z,97480.92
2018-09-17T08:25:54.781Z,97474.06
2018-09-17T08:28:22.096Z,97479.52
2018-09-17T08:30:49.291Z,97486.27
2018-09-17T08:33:16.436Z,97477.02
2018-09-17T08:35:43.657Z,97475.29
2018-09-17T08:38:10.829Z,97473.47
2018-09-17T08:40:38.039Z,97470.97
2018-09-17T08:43:05.624Z,97466.56
2018-09-17T08:45:32.767Z,97466.02
2018-09-17T08:47:59.968Z,97465.77
2018-09-17T08:50:27.169Z,97465.05
2018-09-17T08:52:54.392Z,97459.02
2018-09-17T08:55:27.443Z,97455.50
2018-09-17T08:58:00.955Z,97455.22
2018-09-17T09:01:08.320Z,97460.66
2018-09-17T09:03:38.856Z,97460.72
2018-09-17T09:06:11.758Z,97456.27
2018-09-17T09:08:38.913Z,97447.61
2018-09-17T09:11:11.779Z,97444.80
2018-09-17T09:13:44.531Z,97441.27
2018-09-17T09:16:11.655Z,97441.08
2018-09-17T09:18:38.796Z,97431.04
2018-09-17T09:21:06.031Z,97435.71
2018-09-17T09:23:33.220Z,97431.84
2018-09-17T09:26:00.440Z,97428.19
2018-09-17T09:28:27.772Z,97424.04
2018-09-17T09:30:54.936Z,97414.11
2018-09-17T09:33:22.115Z,97414.24
2018-09-17T09:35:49.313Z,97415.63
2018-09-17T09:38:16.515Z,97411.20
2018-09-17T09:40:43.695Z,97405.86
2018-09-17T09:43:10.827Z,97404.67
2018-09-17T09:45:37.959Z,97399.84
2018-09-17T09:48:11.928Z,97398.41
2018-09-17T09:50:39.124Z,97398.00
2018-09-17T09:53:06.287Z,97388.34
2018-09-17T09:55:33.603Z,97391.70
2018-09-17T09:58:07.632Z,97388.45
2018-09-17T10:01:39.082Z,97388.39
2018-09-17T10:04:12.112Z,97391.56
2018-09-17T10:06:39.260Z,97383.00
2018-09-17T10:09:12.852Z,97383.64
2018-09-17T10:11:45.773Z,97376.02
2018-09-17T10:14:18.655Z,97380.83
2018-09-17T10:17:51.319Z,97382.59
2018-09-17T10:20:18.624Z,97377.06
2018-09-17T10:22:45.855Z,97376.73
2018-09-17T10:25:13.093Z,97377.31
2018-09-17T10:27:40.355Z,97377.04
2018-09-17T10:30:07.540Z,97367.53
2018-09-17T10:32:34.737Z,97369.56
2018-09-17T10:35:02.008Z,97364.80
2018-09-17T10:37:29.173Z,97361.90
2018-09-17T10:39:56.345Z,97367.51
2018-09-17T10:42:23.488Z,97367.69
2018-09-17T10:44:50.604Z,97364.23
2018-09-17T10:47:17.817Z,97366.91
2018-09-17T10:49:45.013Z,97371.75
2018-09-17T10:52:12.207Z,97359.23
2018-09-17T10:54:39.443Z,97360.20
2018-09-17T10:57:06.607Z,97359.42
2018-09-17T10:59:33.836Z,97349.77
2018-09-17T11:02:00.984Z,97348.20
2018-09-17T11:04:28.176Z,97348.76
2018-09-17T11:06:55.399Z,97348.52
2018-09-17T11:09:22.608Z,97351.77
2018-09-17T11:11:56.560Z,97347.69
2018-09-17T11:14:23.740Z,97357.05
2018-09-17T11:16:50.875Z,97346.76
2018-09-17T11:19:18.027Z,97347.13
2018-09-17T11:21:45.179Z,97343.59
2018-09-17T11:24:12.421Z,97339.59
2018-09-17T11:26:39.600Z,97335.83
2018-09-17T11:29:06.740Z,97331.55
2018-09-17T11:31:33.972Z,97338.12
2018-09-17T11:34:01.097Z,97323.38
2018-09-17T11:36:28.273Z,97334.05
2018-09-17T11:38:55.420Z,97316.20
2018-09-17T11:41:22.578Z,97315.66
2018-09-17T11:43:49.900Z,97319.66
2018-09-17T11:46:17.156Z,97324.63
2018-09-17T11:48:44.348Z,97328.21
2018-09-17T11:51:11.495Z,97321.45
2018-09-17T11:53:38.763Z,97313.95
2018-09-17T11:56:05.849Z,97316.61
2018-09-17T11:58:33.112Z,97321.66
2018-09-17T12:01:06.016Z,97317.02
2018-09-17T12:03:39.008Z,97316.25
2018-09-17T12:06:06.223Z,97310.84
2018-09-17T12:08:33.397Z,97306.24
2018-09-17T12:11:00.616Z,97302.71
2018-09-17T12:13:27.794Z,97296.89
2018-09-17T12:15:54.932Z,97293.44
2018-09-17T12:18:22.163Z,97300.35
2018-09-17T12:20:49.304Z,97295.36
2018-09-17T12:23:16.484Z,97290.28
2018-09-17T12:25:43.669Z,97287.48
2018-09-17T12:28:10.836Z,97281.54
2018-09-17T12:30:38.012Z,97278.26
2018-09-17T12:33:11.999Z,97268.27
2018-09-17T12:35:39.140Z,97271.16
2018-09-17T12:38:06.280Z,97272.55
2018-09-17T12:40:33.457Z,97265.39
2018-09-17T12:43:00.685Z,97264.48
2018-09-17T12:45:27.884Z,97259.48
2018-09-17T12:47:55.367Z,97257.53
2018-09-17T12:50:22.840Z,97248.52
2018-09-17T12:52:50.009Z,97255.78
2018-09-17T12:55:17.280Z,97248.98
2018-09-17T12:57:44.580Z,97253.12
2018-09-17T13:00:11.816Z,97249.06
2018-09-17T13:02:39.083Z,97248.72
2018-09-17T13:05:06.544Z,97248.72
2018-09-17T13:07:33.741Z,97253.12
2018-09-17T13:10:01.075Z,97254.74
2018-09-17T13:12:28.329Z,97251.10
2018-09-17T13:14:56.062Z,97244.03
2018-09-17T13:17:23.167Z,97243.13
2018-09-17T13:19:50.360Z,97242.92
2018-09-17T13:22:17.566Z,97241.05
2018-09-17T13:24:44.837Z,97239.56
2018-09-17T13:27:12.044Z,97238.98
2018-09-17T13:29:39.287Z,97235.75
2018-09-17T13:32:06.606Z,97227.73
2018-09-17T13:34:33.727Z,97229.53
2018-09-17T13:37:00.988Z,97222.02
2018-09-17T13:39:28.181Z,97214.91
2018-09-17T13:41:55.336Z,97219.66
2018-09-17T13:44:22.599Z,97215.86
2018-09-17T13:46:49.812Z,97210.33
2018-09-17T13:49:16.991Z,97205.84
2018-09-17T13:51:44.294Z,97210.63
2018-09-17T13:54:11.575Z,97214.41
2018-09-17T13:56:38.773Z,97214.78
2018-09-17T13:59:06.117Z,97206.36
2018-09-17T14:01:33.322Z,97205.09
2018-09-17T14:04:00.493Z,97204.22
2018-09-17T14:06:27.671Z,97201.78
2018-09-17T14:08:54.864Z,97206.50
2018-09-17T14:11:22.104Z,97205.63
2018-09-17T14:13:49.351Z,97193.38
2018-09-17T14:16:21.130Z,97192.78
2018-09-17T14:18:48.311Z,97192.02
2018-09-17T14:21:15.536Z,97196.53
2018-09-17T14:23:42.713Z,97192.16
2018-09-17T16:07:00.671Z,97130.95
2018-09-17T16:09:27.833Z,97135.09
2018-09-17T16:11:56.740Z,97131.05
2018-09-17T16:14:24.236Z,97129.69
2018-09-17T16:16:51.476Z,97127.30
2018-09-17T16:19:18.628Z,97121.91
2018-09-17T16:21:45.918Z,97128.03
2018-09-17T16:24:13.115Z,97121.61
2018-09-17T16:26:40.313Z,97129.63
2018-09-17T16:29:07.529Z,97128.22
2018-09-17T16:31:34.818Z,97118.54
2018-09-17T16:34:02.044Z,97129.88
2018-09-17T16:36:29.362Z,97124.38
2018-09-17T16:38:56.558Z,97124.66
2018-09-17T16:41:23.837Z,97124.12
2018-09-17T16:43:51.008Z,97126.28
2018-09-17T16:46:18.224Z,97130.55
2018-09-17T16:48:45.405Z,97127.87
2018-09-17T16:51:12.775Z,97126.73
2018-09-17T16:53:40.298Z,97129.08
2018-09-17T16:56:07.457Z,97125.97
2018-09-17T16:58:34.737Z,97130.78
2018-09-17T17:01:02.196Z,97129.83
2018-09-17T17:03:29.408Z,97129.23
2018-09-17T17:05:56.752Z,97119.40
2018-09-17T17:08:23.978Z,97121.23
2018-09-17T17:10:51.341Z,97120.09
2018-09-17T17:13:18.529Z,97124.31
2018-09-17T17:15:47.320Z,97126.69
2018-09-17T17:18:15.781Z,97125.48
2018-09-17T17:20:43.163Z,97124.95
2018-09-17T17:23:10.369Z,97131.09
2018-09-17T17:25:37.573Z,97128.02
2018-09-17T17:28:04.839Z,97132.45
2018-09-17T17:30:32.131Z,97128.00
2018-09-17T17:32:59.376Z,97128.00
2018-09-17T17:35:26.677Z,97133.73
2018-09-17T17:37:53.957Z,97130.28
2018-09-17T17:40:21.351Z,97126.83
2018-09-17T17:42:48.612Z,97142.31
2018-09-17T17:45:15.975Z,97137.44
2018-09-17T17:47:43.284Z,97136.07
2018-09-17T17:50:10.584Z,97139.73
2018-09-17T17:52:37.811Z,97139.61
2018-09-17T17:55:05.713Z,97139.16
2018-09-17T17:57:32.944Z,97143.19
2018-09-17T18:00:00.273Z,97150.59
2018-09-17T18:02:27.669Z,97150.92
2018-09-17T18:04:55.028Z,97146.16
2018-09-17T18:07:22.427Z,97151.82
2018-09-17T18:09:49.669Z,97154.24
2018-09-17T18:12:17.081Z,97152.76
2018-09-17T18:14:45.306Z,97152.60
2018-09-17T18:17:13.007Z,97157.03
2018-09-17T18:19:40.309Z,97154.34
2018-09-17T18:22:07.583Z,97163.70
2018-09-17T18:24:35.060Z,97163.87
2018-09-17T18:27:02.553Z,97156.66
2018-09-17T18:29:29.746Z,97159.08
2018-09-17T18:31:56.974Z,97153.58
2018-09-17T18:34:24.428Z,97155.25
2018-09-17T18:36:51.851Z,97154.65
2018-09-17T18:39:19.353Z,97163.47
2018-09-17T18:41:46.652Z,97164.23
2018-09-17T18:44:13.933Z,97162.94
2018-09-17T18:46:41.165Z,97162.00
2018-09-17T18:49:08.600Z,97160.17
2018-09-17T18:51:35.965Z,97164.22
2018-09-17T18:54:03.352Z,97169.16
2018-09-17T18:56:30.738Z,97165.52
2018-09-17T18:58:58.004Z,97169.95
2018-09-17T19:01:25.358Z,97168.29
2018-09-17T19:03:52.691Z,97162.64
2018-09-17T19:06:20.021Z,97167.30
2018-09-17T19:08:47.371Z,97163.79
2018-09-17T19:11:14.617Z,97167.73
2018-09-17T19:13:45.805Z,97175.46
2018-09-17T19:16:13.141Z,97168.16
2018-09-17T19:18:40.458Z,97173.48
2018-09-17T19:21:07.856Z,97170.71
2018-09-17T19:23:40.567Z,97171.90
2018-09-17T19:26:07.816Z,97173.13
2018-09-17T19:28:40.681Z,97177.70
2018-09-17T19:31:07.972Z,97181.08
2018-09-17T19:33:35.208Z,97171.34
2018-09-17T19:36:02.472Z,97180.23
2018-09-17T19:39:36.483Z,97170.56
2018-09-17T19:42:03.967Z,97171.34
2018-09-17T19:44:31.262Z,97170.56
2018-09-17T19:46:58.550Z,97169.22
2018-09-17T19:49:25.809Z,97174.77
2018-09-17T19:51:58.704Z,97172.95
2018-09-17T19:54:26.032Z,97183.19
2018-09-17T19:56:53.270Z,97176.22
2018-09-17T19:59:26.453Z,97177.65
2018-09-17T20:01:53.729Z,97177.25
2018-09-17T20:04:27.038Z,97173.03
2018-09-17T20:06:54.341Z,97174.63
2018-09-17T20:09:21.668Z,97174.69
2018-09-17T20:11:48.893Z,97170.45
2018-09-17T20:14:16.205Z,97172.42
2018-09-17T20:16:43.437Z,97168.06
2018-09-17T20:19:10.720Z,97173.05
2018-09-17T20:21:38.035Z,97175.12
2018-09-17T20:24:05.354Z,97176.80
2018-09-17T20:26:32.619Z,97172.94
2018-09-17T20:28:59.953Z,97168.69
2018-09-17T20:31:27.219Z,97174.48
2018-09-17T20:33:54.453Z,97167.09
2018-09-17T20:36:21.723Z,97169.02
2018-09-17T20:38:49.200Z,97166.31
2018-09-17T20:41:16.435Z,97164.34
2018-09-17T20:43:43.765Z,97174.82
2018-09-17T20:46:11.032Z,97175.65
2018-09-17T20:48:38.328Z,97173.95
2018-09-17T20:51:12.642Z,97169.70
2018-09-17T20:53:40.135Z,97168.21
2018-09-17T20:56:07.632Z,97168.38
2018-09-17T20:58:34.857Z,97163.81
2018-09-17T21:01:02.876Z,97160.38
2018-09-17T21:03:30.069Z,97159.60
2018-09-17T21:05:57.317Z,97158.23
2018-09-17T21:08:24.615Z,97157.98
2018-09-17T21:10:51.848Z,97153.89
2018-09-17T21:13:19.755Z,97154.83
2018-09-17T21:15:47.040Z,97156.53
2018-09-17T21:18:14.201Z,97153.98
2018-09-17T21:20:41.553Z,97157.40
2018-09-17T21:23:08.800Z,97162.54
2018-09-17T21:25:36.017Z,97163.31
2018-09-17T21:28:03.685Z,97162.76
2018-09-17T21:30:30.943Z,97161.24
2018-09-17T21:32:58.293Z,97157.02
2018-09-17T21:35:25.508Z,97158.39
2018-09-17T21:37:52.945Z,97161.68
2018-09-17T21:40:20.950Z,97160.79
2018-09-17T21:42:48.254Z,97158.72
2018-09-17T21:45:15.505Z,97160.22
2018-09-17T21:47:42.740Z,97155.69
2018-09-17T21:50:10.053Z,97156.69
2018-09-17T21:52:37.305Z,97151.58
2018-09-17T21:55:04.833Z,97158.11
2018-09-17T21:57:32.121Z,97152.14
2018-09-17T21:59:59.753Z,97158.02
2018-09-17T22:02:27.241Z,97158.23
2018-09-17T22:04:54.653Z,97160.45
2018-09-17T22:07:23.134Z,97156.78
2018-09-17T22:09:50.377Z,97167.11
2018-09-17T22:12:17.691Z,97162.34
2018-09-17T22:14:44.963Z,97161.31
2018-09-17T22:17:12.236Z,97161.97
2018-09-17T22:19:39.575Z,97134.89
2018-09-17T22:22:06.809Z,97160.92
2018-09-17T22:24:34.041Z,97161.03
2018-09-17T22:27:01.330Z,97158.05
2018-09-17T22:29:28.565Z,97159.42
2018-09-17T22:31:55.845Z,97157.33
2018-09-17T22:34:23.155Z,97162.90
2018-09-17T22:36:50.340Z,97162.34
2018-09-17T22:39:17.609Z,97164.48
2018-09-17T22:41:44.853Z,97162.86
2018-09-17T22:44:12.105Z,97159.11
2018-09-17T22:46:39.400Z,97152.02
2018-09-17T22:49:07.072Z,97158.27
2018-09-17T22:51:34.350Z,97148.75
2018-09-17T22:54:01.678Z,97147.05
2018-09-17T22:56:28.881Z,97147.53
2018-09-17T22:58:56.199Z,97147.73
2018-09-17T23:01:23.588Z,97139.80
2018-09-17T23:03:50.853Z,97136.50
2018-09-17T23:06:18.056Z,97137.79
2018-09-17T23:08:45.330Z,97137.18
2018-09-17T23:11:12.571Z,97135.43
2018-09-17T23:13:39.977Z,97129.91
2018-09-17T23:16:07.225Z,97128.75
2018-09-17T23:18:34.457Z,97122.94
2018-09-17T23:21:01.698Z,97124.28
2018-09-17T23:23:29.003Z,97123.50
2018-09-17T23:25:56.212Z,97116.36
2018-09-17T23:28:23.475Z,97116.30
2018-09-17T23:30:50.749Z,97113.19
2018-09-17T23:33:17.960Z,97108.70
2018-09-17T23:35:45.231Z,97111.80
2018-09-17T23:38:12.422Z,97119.83
2018-09-17T23:40:39.659Z,97113.39
2018-09-17T23:43:06.908Z,97103.97
2018-09-17T23:45:34.124Z,97107.73
2018-09-17T23:48:01.404Z,97108.74
2018-09-17T23:50:28.650Z,97106.61
2018-09-17T23:52:55.840Z,97100.20
2018-09-17T23:55:23.085Z,97102.03
2018-09-17T23:57:50.334Z,97102.68
